Time;durP1;ratioP1;P1;durP2;ratioP2;P2;SDS_P1;SDS_P2;PMS_P1;PMS_P2;Temp;Humidity;BMP_temperature;BMP_pressure;BME280_temperature;BME280_humidity;BME280_pressure;Samples;Min_cycle;Max_cycle;Signal;HPM_P1;HPM_P2
2021/05/20 00:02:17;;;;;;;3.60;2.80;;;;;;;8.55;100.00;98467.92;3706713;79;44526;-22
2021/05/20 00:07:23;;;;;;;2.98;2.67;;;;;;;8.56;100.00;98461.05;3617709;80;43678;-22
2021/05/20 00:12:29;;;;;;;3.83;2.77;;;;;;;8.59;100.00;98466.13;3702690;79;43702;-22
2021/05/20 00:17:35;;;;;;;2.87;2.50;;;;;;;8.57;100.00;98471.31;3612316;82;73280;-22
2021/05/20 00:22:41;;;;;;;4.87;2.70;;;;;;;8.55;100.00;98467.41;3707835;79;44010;-22
2021/05/20 00:27:47;;;;;;;7.10;3.10;;;;;;;8.54;100.00;98472.43;3603538;80;43720;-22
2021/05/20 00:32:53;;;;;;;3.47;3.00;;;;;;;8.56;100.00;98467.77;3704098;79;73552;-22
2021/05/20 00:37:58;;;;;;;4.37;3.13;;;;;;;8.52;100.00;98456.98;3617429;80;42632;-22
2021/05/20 00:43:04;;;;;;;4.50;3.20;;;;;;;8.50;100.00;98471.05;3700139;80;43308;-22
2021/05/20 00:48:11;;;;;;;4.93;3.40;;;;;;;8.43;100.00;98464.52;3608808;82;69201;-22
2021/05/20 00:53:17;;;;;;;4.13;3.27;;;;;;;8.40;100.00;98462.98;3695388;79;44484;-22
2021/05/20 00:58:24;;;;;;;3.85;2.80;;;;;;;8.43;100.00;98475.27;3553463;82;43668;-22
2021/05/20 01:03:31;;;;;;;7.20;3.67;;;;;;;8.39;100.00;98462.63;3628715;80;44795;-21
2021/05/20 01:08:38;;;;;;;4.25;3.70;;;;;;;8.33;100.00;98462.72;3692638;78;43549;-22
2021/05/20 01:13:44;;;;;;;5.50;4.10;;;;;;;8.31;100.00;98457.99;3686685;78;69010;-22
2021/05/20 01:18:50;;;;;;;4.83;3.83;;;;;;;8.28;100.00;98459.65;3684534;80;43100;-22
2021/05/20 01:23:56;;;;;;;5.55;4.03;;;;;;;8.22;100.00;98462.90;3627040;80;44014;-22
2021/05/20 01:29:02;;;;;;;4.72;4.05;;;;;;;8.20;100.00;98466.22;3687097;79;69176;-22
2021/05/20 01:34:09;;;;;;;6.62;4.95;;;;;;;8.13;100.00;98464.61;3677976;78;43488;-22
2021/05/20 01:39:15;;;;;;;6.87;5.57;;;;;;;8.06;100.00;98472.89;3674096;78;43458;-23
2021/05/20 01:44:21;;;;;;;5.43;4.23;;;;;;;8.02;100.00;98478.19;3670558;79;44087;-22
2021/05/20 01:49:27;;;;;;;5.60;4.20;;;;;;;7.96;100.00;98478.77;3684559;78;69100;-22
2021/05/20 01:54:33;;;;;;;4.80;4.00;;;;;;;7.94;100.00;98482.92;3679594;79;44062;-22
2021/05/20 01:59:40;;;;;;;5.97;3.83;;;;;;;7.92;100.00;98480.91;3684286;80;43373;-22
2021/05/20 02:04:46;;;;;;;4.60;3.47;;;;;;;7.95;100.00;98472.55;3669170;78;44450;-22
2021/05/20 02:09:51;;;;;;;5.00;4.10;;;;;;;7.96;100.00;98471.56;3671749;78;43712;-22
2021/05/20 02:14:57;;;;;;;5.60;4.30;;;;;;;7.97;100.00;98478.62;3684529;79;43932;-22
2021/05/20 02:20:04;;;;;;;6.70;4.33;;;;;;;7.81;100.00;98482.39;3681815;78;44080;-22
2021/05/20 02:25:12;;;;;;;4.80;4.00;;;;;;;7.84;100.00;98484.29;3668417;79;44011;-22
2021/05/20 02:30:20;;;;;;;4.37;3.93;;;;;;;7.86;100.00;98484.14;3679643;80;69076;-21
2021/05/20 02:35:26;;;;;;;6.03;4.33;;;;;;;7.86;100.00;98484.14;3685232;78;43716;-22
2021/05/20 02:40:32;;;;;;;5.22;4.20;;;;;;;7.88;100.00;98495.58;3681635;78;44737;-23
2021/05/20 02:45:38;;;;;;;5.10;4.20;;;;;;;7.82;100.00;98498.84;3686590;78;44285;-22
2021/05/20 02:50:44;;;;;;;5.30;4.27;;;;;;;7.82;100.00;98494.82;3687661;79;44020;-21
2021/05/20 02:55:50;;;;;;;6.00;4.27;;;;;;;7.79;100.00;98499.95;3672690;78;44009;-22
2021/05/20 03:00:56;;;;;;;5.75;4.45;;;;;;;7.76;100.00;98494.86;3710630;80;43604;-22
2021/05/20 03:06:03;;;;;;;7.03;4.80;;;;;;;7.80;100.00;98506.17;3710683;78;43033;-22
2021/05/20 03:11:10;;;;;;;6.07;4.80;;;;;;;7.78;100.00;98506.81;3700804;79;43431;-22
2021/05/20 03:16:16;;;;;;;7.73;5.00;;;;;;;7.74;100.00;98508.06;3577802;81;69012;-22
2021/05/20 03:21:22;;;;;;;7.20;5.00;;;;;;;7.66;100.00;98505.61;3709674;78;43086;-22
2021/05/20 03:26:28;;;;;;;9.17;5.83;;;;;;;7.68;100.00;98506.32;3707475;78;69357;-22
2021/05/20 03:31:34;;;;;;;12.90;6.65;;;;;;;7.65;100.00;98511.95;3709410;78;75545;-22
2021/05/20 03:36:40;;;;;;;10.53;7.67;;;;;;;7.68;100.00;98511.69;3709415;78;44648;-22
2021/05/20 03:41:45;;;;;;;10.87;7.30;;;;;;;7.72;100.00;98514.92;3709883;78;43432;-22
2021/05/20 03:46:52;;;;;;;8.57;6.00;;;;;;;7.72;100.00;98522.97;3706990;78;44100;-21
2021/05/20 03:51:59;;;;;;;8.05;5.65;;;;;;;7.74;100.00;98528.18;3704661;79;42750;-22
2021/05/20 03:57:06;;;;;;;7.93;5.53;;;;;;;7.76;100.00;98532.41;3641194;80;44075;-22
2021/05/20 04:02:12;;;;;;;6.70;5.40;;;;;;;7.79;100.00;98538.00;3682793;78;44070;-21
2021/05/20 04:07:18;;;;;;;8.70;5.80;;;;;;;7.83;100.00;98539.40;3684207;78;43285;-22
2021/05/20 04:12:25;;;;;;;8.03;5.87;;;;;;;7.84;100.00;98543.78;3680180;78;44078;-22
2021/05/20 04:17:32;;;;;;;9.27;5.90;;;;;;;7.88;100.00;98545.20;3682577;78;43418;-21
2021/05/20 04:22:39;;;;;;;7.80;5.85;;;;;;;7.92;100.00;98556.02;3681862;78;43689;-21
2021/05/20 04:27:46;;;;;;;8.15;5.47;;;;;;;7.95;100.00;98554.88;3684399;80;43382;-21
2021/05/20 04:37:46;;;;;;;11.27;5.93;;;;;;;8.11;100.00;98551.14;3984052;72;30670;-20
2021/05/20 04:42:55;;;;;;;8.93;6.20;;;;;;;8.14;100.00;98563.42;3947266;75;43709;-21
2021/05/20 04:48:01;;;;;;;7.20;5.20;;;;;;;8.23;100.00;98567.92;3920755;73;43702;-21
2021/05/20 04:53:06;;;;;;;9.93;6.23;;;;;;;8.35;100.00;98573.14;3923827;73;43444;-21
2021/05/20 04:58:12;;;;;;;7.77;5.73;;;;;;;8.51;100.00;98576.60;3926314;73;69115;-21
2021/05/20 05:03:19;;;;;;;10.00;6.10;;;;;;;8.62;100.00;98574.61;3931751;75;43682;-21
2021/05/20 05:08:24;;;;;;;7.20;5.77;;;;;;;8.75;100.00;98587.72;3927461;73;44008;-24
2021/05/20 05:13:30;;;;;;;7.25;5.67;;;;;;;8.79;100.00;98585.09;3925577;75;44938;-21
2021/05/20 05:18:38;;;;;;;7.03;5.58;;;;;;;8.90;100.00;98598.00;3927943;73;44624;-21
2021/05/20 05:23:43;;;;;;;8.93;6.37;;;;;;;9.00;100.00;98593.92;3939508;73;44051;-21
2021/05/20 05:28:50;;;;;;;7.08;5.87;;;;;;;9.03;100.00;98590.47;3913892;75;44148;-21
2021/05/20 05:33:56;;;;;;;7.90;5.97;;;;;;;9.03;100.00;98601.22;3931177;74;44068;-22
2021/05/20 05:39:01;;;;;;;9.48;6.55;;;;;;;9.00;100.00;98609.56;3910607;74;44075;-21
2021/05/20 05:44:08;;;;;;;8.00;6.12;;;;;;;9.04;100.00;98617.69;3924972;74;44053;-22
2021/05/20 05:49:15;;;;;;;9.65;6.83;;;;;;;9.05;100.00;98618.53;3910168;73;44079;-22
2021/05/20 05:54:21;;;;;;;9.05;6.78;;;;;;;9.05;100.00;98625.24;3913818;73;69071;-22
2021/05/20 05:59:27;;;;;;;10.85;6.85;;;;;;;9.06;100.00;98628.28;3908187;73;43715;-22
2021/05/20 06:04:33;;;;;;;10.72;7.80;;;;;;;9.18;100.00;98633.83;3909294;74;43979;-21
2021/05/20 06:09:40;;;;;;;10.28;7.60;;;;;;;9.27;100.00;98640.17;3918362;74;42952;-21
2021/05/20 06:14:46;;;;;;;11.38;7.70;;;;;;;9.26;100.00;98647.88;3913847;74;44054;-21
2021/05/20 06:19:51;;;;;;;10.90;7.97;;;;;;;9.30;100.00;98649.77;3909714;74;44038;-22
2021/05/20 06:24:57;;;;;;;13.30;8.28;;;;;;;9.26;100.00;98649.23;3808127;76;43333;-22
2021/05/20 06:30:04;;;;;;;12.07;8.65;;;;;;;9.25;100.00;98652.40;3894912;74;43428;-22
2021/05/20 06:35:11;;;;;;;11.55;8.28;;;;;;;9.29;100.00;98657.49;3892313;75;43722;-21
2021/05/20 06:40:18;;;;;;;9.00;6.53;;;;;;;9.31;100.00;98659.54;3895097;74;43391;-21
2021/05/20 06:45:26;;;;;;;11.08;7.78;;;;;;;9.21;100.00;98663.11;3906389;74;43074;-22
2021/05/20 06:50:34;;;;;;;9.93;7.40;;;;;;;9.27;100.00;98667.06;3900151;75;75431;-22
2021/05/20 06:55:40;;;;;;;11.33;7.43;;;;;;;9.24;100.00;98667.34;3890963;74;44148;-26
2021/05/20 07:00:48;;;;;;;11.05;8.38;;;;;;;9.35;100.00;98669.02;3893394;74;43216;-21
2021/05/20 07:05:57;;;;;;;12.30;8.45;;;;;;;9.34;100.00;98680.77;3901999;75;43092;-21
2021/05/20 07:11:03;;;;;;;11.55;8.55;;;;;;;9.35;100.00;98681.12;3893309;75;43733;-21
2021/05/20 07:16:08;;;;;;;12.33;8.93;;;;;;;9.37;100.00;98682.66;3900705;74;42470;-23
2021/05/20 07:21:14;;;;;;;14.50;9.45;;;;;;;9.45;100.00;98684.61;3787499;77;44483;-21
2021/05/20 07:26:20;;;;;;;15.40;9.80;;;;;;;9.41;100.00;98687.23;3791971;76;43732;-22
2021/05/20 07:31:26;;;;;;;15.25;10.90;;;;;;;9.48;100.00;98692.36;3891920;75;44112;-21
2021/05/20 07:36:33;;;;;;;15.93;10.43;;;;;;;9.48;100.00;98698.25;3905051;74;43365;-22
2021/05/20 07:41:41;;;;;;;16.67;10.83;;;;;;;9.46;100.00;98694.86;3891028;74;44058;-21
2021/05/20 07:46:49;;;;;;;15.95;10.75;;;;;;;9.46;100.00;98696.20;3886268;75;43186;-22
2021/05/20 07:51:55;;;;;;;15.43;10.30;;;;;;;9.60;100.00;98690.83;3896152;75;43301;-21
2021/05/20 07:57:01;;;;;;;16.45;10.50;;;;;;;9.63;100.00;98691.88;3905238;74;44553;-21
2021/05/20 08:02:13;;;;;;;18.75;12.07;;;;;;;9.68;100.00;98690.95;3891859;74;44206;-21
2021/05/20 08:07:24;;;;;;;18.77;11.83;;;;;;;9.73;100.00;98685.95;3890898;74;43548;-21
2021/05/20 08:12:24;;;;;;;16.85;10.85;;;;;;;9.82;100.00;98682.36;3890621;74;44151;-21
2021/05/20 08:17:29;;;;;;;17.00;10.72;;;;;;;10.05;100.00;98679.28;3899443;75;44128;-21
2021/05/20 08:22:37;;;;;;;18.15;11.45;;;;;;;10.30;100.00;98682.20;3901514;74;43303;-21
2021/05/20 08:27:43;;;;;;;18.23;11.85;;;;;;;10.59;100.00;98683.86;3900160;74;44035;-21
2021/05/20 08:32:50;;;;;;;15.23;10.53;;;;;;;10.94;100.00;98687.51;3896799;74;44021;-21
2021/05/20 08:37:55;;;;;;;16.37;10.28;;;;;;;10.79;100.00;98684.02;3901945;74;77484;-22
2021/05/20 08:43:02;;;;;;;14.07;9.90;;;;;;;10.66;100.00;98686.78;3897330;74;43698;-22
2021/05/20 08:48:09;;;;;;;13.00;9.28;;;;;;;10.68;100.00;98686.13;3899443;75;44022;-22
2021/05/20 08:53:15;;;;;;;16.70;10.73;;;;;;;10.88;100.00;98678.69;3910570;75;43384;-23
2021/05/20 08:58:25;;;;;;;14.50;10.08;;;;;;;10.89;100.00;98684.42;3918744;74;43147;-22
2021/05/20 09:03:29;;;;;;;14.20;10.30;;;;;;;11.01;100.00;98688.56;3905879;74;43741;-22
2021/05/20 09:08:35;;;;;;;13.13;9.50;;;;;;;11.12;100.00;98682.56;3901217;75;43343;-22
2021/05/20 09:13:42;;;;;;;12.55;9.53;;;;;;;11.23;100.00;98676.41;3898491;74;43285;-22
2021/05/20 09:18:52;;;;;;;13.45;9.75;;;;;;;11.24;100.00;98680.80;3905209;74;44105;-22
2021/05/20 09:23:58;;;;;;;14.28;10.63;;;;;;;11.23;100.00;98685.02;3908753;75;43678;-22
2021/05/20 09:29:13;;;;;;;12.53;9.45;;;;;;;11.35;100.00;98674.27;3909728;75;43412;-22
2021/05/20 09:34:20;;;;;;;12.55;9.15;;;;;;;11.44;100.00;98678.39;3897503;74;44158;-23
2021/05/20 09:39:26;;;;;;;13.40;10.00;;;;;;;11.58;100.00;98669.70;3905797;74;44463;-22
2021/05/20 09:44:33;;;;;;;11.97;9.13;;;;;;;11.62;100.00;98675.61;3906405;74;43397;-22
2021/05/20 09:50:01;;;;;;;10.13;7.92;;;;;;;11.96;100.00;98671.50;3916850;74;43380;-22
2021/05/20 09:55:23;;;;;;;12.03;8.53;;;;;;;12.16;100.00;98673.97;3909448;75;43419;-23
2021/05/20 10:00:30;;;;;;;12.90;9.25;;;;;;;12.28;100.00;98665.03;3901811;75;43669;-21
2021/05/20 10:05:38;;;;;;;12.53;9.75;;;;;;;12.19;100.00;98666.86;3905786;74;42810;-22
2021/05/20 10:10:46;;;;;;;10.63;8.13;;;;;;;12.38;100.00;98660.84;3902898;74;44178;-21
2021/05/20 10:15:53;;;;;;;10.28;8.10;;;;;;;12.34;100.00;98661.69;3908277;74;43716;-22
2021/05/20 10:21:01;;;;;;;7.62;6.35;;;;;;;12.55;100.00;98653.59;3902054;74;43686;-21
2021/05/20 10:26:10;;;;;;;8.10;6.72;;;;;;;12.80;100.00;98655.77;3906516;75;44208;-21
2021/05/20 10:31:17;;;;;;;7.80;6.83;;;;;;;12.85;100.00;98657.47;3901855;75;43967;-22
2021/05/20 10:36:26;;;;;;;7.87;6.20;;;;;;;13.07;100.00;98661.31;3908292;74;43694;-22
2021/05/20 10:41:34;;;;;;;9.98;8.03;;;;;;;13.21;100.00;98650.31;3918438;73;44033;-22
2021/05/20 10:47:04;;;;;;;8.33;7.05;;;;;;;13.05;100.00;98653.04;3932284;73;44448;-22
2021/05/20 10:52:35;;;;;;;9.85;7.55;;;;;;;12.85;100.00;98654.77;3906940;73;43718;-22
2021/05/20 10:58:01;;;;;;;9.83;8.00;;;;;;;12.84;100.00;98640.91;3915128;75;44080;-22
2021/05/20 11:03:09;;;;;;;10.93;7.87;;;;;;;12.95;100.00;98644.61;3906845;73;44063;-22
2021/05/20 11:09:01;;;;;;;9.05;7.05;;;;;;;12.81;100.00;98641.77;3910253;75;43452;-22
2021/05/20 11:14:09;;;;;;;4.97;3.80;;;;;;;13.09;100.00;98633.59;3922466;73;43686;-23
2021/05/20 11:19:28;;;;;;;5.10;4.50;;;;;;;13.20;100.00;98638.30;3912079;73;42985;-22
2021/05/20 11:24:36;;;;;;;3.47;3.15;;;;;;;13.17;100.00;98634.09;3905566;75;43455;-22
2021/05/20 11:29:43;;;;;;;3.20;2.90;;;;;;;13.05;100.00;98630.05;3920201;75;43630;-23
2021/05/20 11:35:05;;;;;;;3.40;2.65;;;;;;;12.94;100.00;98632.10;3906145;73;43686;-22
2021/05/20 11:40:25;;;;;;;3.77;2.72;;;;;;;13.14;100.00;98624.95;3899625;75;43562;-22
2021/05/20 11:45:33;;;;;;;2.77;2.58;;;;;;;13.59;99.14;98625.35;3889810;74;43727;-22
2021/05/20 11:50:41;;;;;;;2.72;2.20;;;;;;;13.94;86.15;98612.80;3890856;74;43371;-22
2021/05/20 11:55:47;;;;;;;4.42;2.55;;;;;;;13.94;84.64;98614.16;3896364;74;44103;-23
2021/05/20 12:01:03;;;;;;;3.05;2.50;;;;;;;13.95;78.71;98611.30;3914669;75;43124;-22
2021/05/20 12:06:10;;;;;;;4.05;2.87;;;;;;;13.79;75.52;98610.02;3899286;74;44535;-23
2021/05/20 12:11:28;;;;;;;4.40;3.37;;;;;;;13.70;85.74;98609.24;3907961;75;44025;-22
2021/05/20 12:16:35;;;;;;;4.45;3.77;;;;;;;14.10;90.78;98604.59;3890432;74;44647;-23
2021/05/20 12:21:42;;;;;;;5.22;3.70;;;;;;;14.34;85.50;98600.02;3898264;74;43686;-22
2021/05/20 12:26:48;;;;;;;5.75;3.92;;;;;;;14.22;81.08;98591.98;3895731;74;43699;-22
2021/05/20 12:31:54;;;;;;;5.15;4.20;;;;;;;14.65;87.96;98590.94;3902406;75;44205;-22
2021/05/20 12:37:08;;;;;;;4.95;4.45;;;;;;;14.89;87.55;98577.70;3895440;74;42889;-21
2021/05/20 12:42:16;;;;;;;4.97;4.33;;;;;;;14.88;85.34;98571.09;3891686;74;43680;-22
2021/05/20 12:47:23;;;;;;;6.83;4.55;;;;;;;15.31;83.36;98575.37;3886625;75;43254;-21
2021/05/20 12:52:28;;;;;;;5.45;4.95;;;;;;;15.13;83.69;98570.33;3895748;74;44066;-22
2021/05/20 12:57:59;;;;;;;7.65;5.40;;;;;;;14.64;81.11;98573.02;3896678;74;43757;-22
2021/05/20 13:03:06;;;;;;;5.58;4.87;;;;;;;14.86;91.08;98571.81;3912523;74;44015;-21
2021/05/20 13:08:24;;;;;;;7.03;5.20;;;;;;;15.03;78.76;98571.13;3904854;75;43678;-22
2021/05/20 13:13:36;;;;;;;3.40;2.80;;;;;;;15.58;86.37;98568.94;3904867;75;44088;-22
2021/05/20 13:24:20;;;;;;;3.17;2.55;;;;;;;15.50;76.12;98564.45;3890409;74;44084;-22
2021/05/20 13:29:37;;;;;;;3.25;2.85;;;;;;;15.10;81.29;98563.41;3889462;74;43749;-24
2021/05/20 13:34:44;;;;;;;3.05;2.75;;;;;;;15.16;83.38;98563.67;3889718;74;44058;-23
2021/05/20 13:39:51;;;;;;;2.92;2.67;;;;;;;14.95;78.45;98559.31;3899811;74;43052;-24
2021/05/20 13:44:57;;;;;;;4.35;2.58;;;;;;;14.75;78.96;98560.39;3930640;74;42961;-23
2021/05/20 13:50:05;;;;;;;2.58;2.37;;;;;;;14.85;82.73;98552.50;3926588;74;44457;-23
2021/05/20 13:55:17;;;;;;;2.35;2.15;;;;;;;14.87;77.85;98545.84;3921378;73;43998;-22
2021/05/20 14:00:27;;;;;;;2.92;2.62;;;;;;;15.01;78.90;98550.94;3923102;73;43684;-22
2021/05/20 14:05:34;;;;;;;2.98;2.52;;;;;;;14.88;77.63;98544.82;3920067;73;43673;-25
2021/05/20 14:10:42;;;;;;;2.72;2.30;;;;;;;15.19;76.66;98542.42;3908125;74;43192;-23
2021/05/20 14:15:48;;;;;;;3.58;2.50;;;;;;;15.23;72.52;98530.67;3911574;74;42941;-23
2021/05/20 14:20:53;;;;;;;2.67;2.02;;;;;;;15.72;73.13;98528.66;3914604;74;44006;-23
2021/05/20 14:25:59;;;;;;;3.17;2.08;;;;;;;15.60;73.14;98522.58;3911652;73;43459;-23
2021/05/20 14:31:05;;;;;;;3.20;2.33;;;;;;;15.09;74.40;98522.37;3908481;74;42971;-23
2021/05/20 14:36:11;;;;;;;3.30;2.50;;;;;;;14.92;82.01;98517.66;3907459;73;44094;-23
2021/05/20 14:41:18;;;;;;;3.95;2.40;;;;;;;14.52;84.58;98518.91;3943352;74;44024;-23
2021/05/20 14:46:25;;;;;;;3.33;2.00;;;;;;;14.10;90.22;98519.78;3914485;74;44485;-23
2021/05/20 14:51:35;;;;;;;2.35;2.00;;;;;;;13.92;88.62;98514.67;3925140;73;44780;-23
2021/05/20 14:56:55;;;;;;;2.42;2.20;;;;;;;14.10;90.69;98503.00;3918611;74;43154;-23
2021/05/20 15:07:14;;;;;;;2.92;2.60;;;;;;;14.54;79.44;98507.33;3927260;73;44385;-23
2021/05/20 15:12:24;;;;;;;2.92;2.55;;;;;;;14.74;76.00;98507.17;3914022;74;43694;-23
2021/05/20 15:17:31;;;;;;;2.72;2.52;;;;;;;14.86;73.98;98513.49;3911167;74;42851;-23
2021/05/20 15:22:36;;;;;;;3.77;2.70;;;;;;;15.04;81.49;98500.37;3830237;77;43365;-23
2021/05/20 15:27:42;;;;;;;2.60;2.40;;;;;;;15.52;75.76;98497.73;3768425;77;44236;-22
2021/05/20 15:32:48;;;;;;;3.87;2.22;;;;;;;16.25;71.19;98488.64;3829320;76;44817;-23
2021/05/20 15:37:56;;;;;;;2.05;1.85;;;;;;;16.86;71.26;98478.52;3841256;76;43438;-23
2021/05/20 15:43:02;;;;;;;1.65;1.42;;;;;;;17.17;66.43;98473.14;3815970;76;44653;-23
2021/05/20 15:48:20;;;;;;;2.85;1.40;;;;;;;17.43;64.11;98469.35;3897588;74;44082;-22
2021/05/20 15:53:27;;;;;;;1.60;1.50;;;;;;;17.62;57.96;98466.38;3882024;75;43438;-22
2021/05/20 15:58:33;;;;;;;2.10;1.52;;;;;;;17.25;59.27;98470.23;3843845;75;43432;-23
2021/05/20 16:03:40;;;;;;;1.70;1.32;;;;;;;16.76;55.02;98465.77;3769960;76;43701;-23
2021/05/20 16:08:50;;;;;;;1.47;1.30;;;;;;;16.02;63.93;98463.88;3765188;78;44088;-22
2021/05/20 16:14:05;;;;;;;1.62;1.40;;;;;;;15.89;71.07;98460.53;3752822;76;43018;-22
2021/05/20 16:19:09;;;;;;;2.52;1.80;;;;;;;15.56;67.93;98462.37;3784003;76;44475;-22
2021/05/20 16:24:35;;;;;;;3.52;1.95;;;;;;;15.93;68.44;98450.97;3786834;78;43718;-23
2021/05/20 16:40:21;;;;;;;3.12;1.80;;;;;;;16.00;65.74;98447.78;3763587;78;42770;-23
2021/05/20 16:45:26;;;;;;;2.67;1.70;;;;;;;16.27;67.09;98436.27;3757126;76;44722;-18
2021/05/20 16:50:33;;;;;;;3.92;1.80;;;;;;;16.89;63.66;98434.56;3780044;76;44563;-21
2021/05/20 16:55:43;;;;;;;1.67;1.50;;;;;;;17.06;65.97;98441.89;3775023;76;43426;-22
2021/05/20 17:00:48;;;;;;;1.40;1.30;;;;;;;16.61;56.79;98426.45;3729030;79;44390;-22
2021/05/20 17:05:54;;;;;;;1.30;1.20;;;;;;;16.33;66.84;98414.58;3732349;77;43690;-22
2021/05/20 17:11:01;;;;;;;2.90;1.60;;;;;;;16.18;65.55;98409.25;3722588;77;42629;-22
2021/05/20 17:16:08;;;;;;;1.57;1.47;;;;;;;15.85;60.96;98408.98;3718082;77;44814;-22
2021/05/20 17:21:15;;;;;;;1.72;1.20;;;;;;;15.80;64.73;98410.06;3722208;77;42625;-22
2021/05/20 17:26:22;;;;;;;1.95;1.30;;;;;;;15.66;68.57;98399.08;3725669;79;43476;-22
2021/05/20 17:31:28;;;;;;;1.77;1.15;;;;;;;15.52;67.94;98400.80;3653884;81;44180;-22
2021/05/20 17:36:34;;;;;;;1.62;1.35;;;;;;;15.46;66.62;98415.70;3718006;77;43301;-21
2021/05/20 17:41:40;;;;;;;1.25;1.10;;;;;;;15.35;70.11;98410.25;3572764;81;44035;-22
2021/05/20 17:46:48;;;;;;;1.10;0.95;;;;;;;15.52;68.74;98413.56;3712717;77;44059;-21
2021/05/20 17:51:56;;;;;;;1.87;1.30;;;;;;;15.51;67.69;98411.38;3712858;77;43119;-22
2021/05/20 17:57:04;;;;;;;1.50;1.20;;;;;;;15.43;68.04;98414.19;3731526;79;44053;-21
2021/05/20 18:02:10;;;;;;;2.15;1.47;;;;;;;15.24;70.54;98417.01;3580491;82;43993;-21
2021/05/20 18:07:17;;;;;;;2.27;1.22;;;;;;;15.12;70.90;98411.75;3711049;77;42994;-22
2021/05/20 18:12:29;;;;;;;1.10;1.00;;;;;;;15.01;73.71;98400.37;3721684;77;43615;-21
2021/05/20 18:17:41;;;;;;;1.27;1.17;;;;;;;14.72;75.92;98402.11;3581014;82;43692;-22
2021/05/20 18:22:42;;;;;;;1.75;1.32;;;;;;;14.40;76.38;98405.52;3721400;77;42844;-23
2021/05/20 18:27:49;;;;;;;1.75;1.25;;;;;;;14.33;78.84;98395.06;3746514;76;44024;-22
2021/05/20 18:32:54;;;;;;;3.15;1.80;;;;;;;14.24;82.53;98388.06;3826756;77;44228;-23
2021/05/20 18:38:00;;;;;;;1.52;1.32;;;;;;;14.16;83.22;98380.36;3809275;77;43403;-22
2021/05/20 18:43:10;;;;;;;1.52;1.32;;;;;;;13.95;85.27;98385.13;3816554;77;44743;-22
2021/05/20 18:48:15;;;;;;;1.77;1.67;;;;;;;13.84;86.57;98378.81;3825155;77;44083;-22
2021/05/20 18:53:22;;;;;;;2.17;1.95;;;;;;;13.69;89.33;98380.13;3801942;77;44779;-22
2021/05/20 18:58:28;;;;;;;3.35;1.70;;;;;;;13.51;92.52;98379.92;3817605;77;44033;-22
2021/05/20 19:03:34;;;;;;;1.87;1.50;;;;;;;13.36;93.91;98383.05;3812678;77;43571;-22
2021/05/20 19:08:40;;;;;;;2.22;1.70;;;;;;;13.23;94.68;98376.36;3817562;77;43762;-22
2021/05/20 19:13:47;;;;;;;1.87;1.65;;;;;;;13.17;95.92;98378.97;3817765;77;42826;-21
2021/05/20 19:18:58;;;;;;;2.42;2.22;;;;;;;13.07;96.00;98383.25;3817981;77;43984;-22
2021/05/20 19:24:02;;;;;;;3.15;2.00;;;;;;;12.88;98.71;98373.19;3819529;77;43281;-22
2021/05/20 19:29:19;;;;;;;2.58;2.25;;;;;;;12.78;100.00;98361.77;3822786;77;43332;-22
2021/05/20 19:34:20;;;;;;;2.72;2.10;;;;;;;12.67;100.00;98362.16;3821926;77;43745;-21
2021/05/20 19:39:28;;;;;;;2.22;2.02;;;;;;;12.49;100.00;98364.61;3802742;77;43975;-22
2021/05/20 19:44:39;;;;;;;3.10;1.70;;;;;;;12.32;100.00;98353.03;3796869;77;44457;-23
2021/05/20 19:49:52;;;;;;;2.02;1.60;;;;;;;12.19;100.00;98354.91;3781157;77;44051;-23
2021/05/20 19:55:13;;;;;;;2.05;1.75;;;;;;;12.05;100.00;98354.30;3793895;77;43346;-22
2021/05/20 20:00:22;;;;;;;1.70;1.35;;;;;;;11.82;100.00;98364.41;3792335;76;43686;-22
2021/05/20 20:05:41;;;;;;;2.37;1.90;;;;;;;11.76;100.00;98356.48;3787231;77;43649;-22
2021/05/20 20:10:37;;;;;;;2.00;1.77;;;;;;;11.53;100.00;98348.25;3783293;76;44033;-22
2021/05/20 20:15:46;;;;;;;1.55;1.45;;;;;;;11.57;100.00;98341.52;3781512;77;43496;-21
2021/05/20 20:20:55;;;;;;;1.70;1.60;;;;;;;11.58;100.00;98334.25;3790030;77;43669;-22
2021/05/20 20:27:41;;;;;;;1.60;1.50;;;;;;;11.48;100.00;98324.97;3830332;77;43400;-22
2021/05/20 20:31:12;;;;;;;2.85;1.82;;;;;;;11.43;100.00;98332.75;3825693;77;43722;-22
2021/05/20 20:36:20;;;;;;;2.40;1.70;;;;;;;11.34;100.00;98320.62;3846688;77;43471;-21
2021/05/20 20:41:29;;;;;;;1.60;1.50;;;;;;;11.33;100.00;98308.63;3809282;77;73315;-23
2021/05/20 20:46:40;;;;;;;2.45;2.00;;;;;;;11.20;100.00;98303.75;3805942;77;44713;-23
2021/05/20 20:51:44;;;;;;;3.37;2.20;;;;;;;11.18;100.00;98296.33;3819820;77;44045;-21
2021/05/20 20:56:51;;;;;;;2.72;2.20;;;;;;;11.12;100.00;98291.59;3833198;77;44544;-22
2021/05/20 21:01:57;;;;;;;2.95;2.58;;;;;;;11.08;100.00;98289.75;3817146;77;43082;-21
2021/05/20 21:07:03;;;;;;;3.60;2.93;;;;;;;11.02;100.00;98284.52;3816606;77;43440;-23
2021/05/20 21:12:10;;;;;;;2.80;2.50;;;;;;;10.99;100.00;98273.23;3820793;77;44090;-22
2021/05/20 21:17:17;;;;;;;2.85;2.50;;;;;;;10.94;100.00;98259.75;3822392;77;43653;-22
2021/05/20 21:22:23;;;;;;;2.58;2.37;;;;;;;10.92;100.00;98251.50;3824154;77;43674;-22
2021/05/20 21:27:29;;;;;;;3.45;2.62;;;;;;;10.83;100.00;98249.81;3825012;77;44033;-22
2021/05/20 21:32:36;;;;;;;4.15;2.70;;;;;;;10.79;100.00;98244.75;3828339;77;43319;-22
2021/05/20 21:37:43;;;;;;;3.30;2.62;;;;;;;10.78;100.00;98243.06;3818565;77;43055;-22
2021/05/20 21:42:50;;;;;;;3.40;2.85;;;;;;;10.84;100.00;98242.08;3832401;77;43351;-22
2021/05/20 21:47:57;;;;;;;4.55;2.52;;;;;;;10.79;100.00;98232.63;3765838;78;43704;-22
2021/05/20 21:53:03;;;;;;;4.30;3.45;;;;;;;10.83;100.00;98218.30;3737792;79;43689;-20
2021/05/20 21:58:09;;;;;;;5.28;3.80;;;;;;;10.82;100.00;98207.70;3747897;77;43284;-21
2021/05/20 22:03:15;;;;;;;5.12;3.90;;;;;;;10.79;100.00;98208.38;3780456;78;44094;-22
2021/05/20 22:08:21;;;;;;;4.67;3.90;;;;;;;10.79;100.00;98208.89;3772995;77;43995;-24
2021/05/20 22:13:49;;;;;;;4.55;3.85;;;;;;;10.77;100.00;98218.47;3782895;77;44091;-23
2021/05/20 22:18:43;;;;;;;3.58;3.12;;;;;;;10.74;100.00;98209.89;3717731;79;44035;-23
2021/05/20 22:23:49;;;;;;;4.47;3.52;;;;;;;10.68;100.00;98191.20;3755357;78;44590;-23
2021/05/20 22:29:03;;;;;;;3.45;3.10;;;;;;;10.69;100.00;98192.88;3747073;77;44029;-23
2021/05/20 22:34:05;;;;;;;3.72;3.27;;;;;;;10.66;100.00;98187.82;3710590;79;43432;-23
2021/05/20 22:39:11;;;;;;;3.80;3.40;;;;;;;10.62;100.00;98185.97;3762063;77;44050;-23
2021/05/20 22:44:17;;;;;;;4.47;3.33;;;;;;;10.58;100.00;98185.98;3758039;78;43482;-23
2021/05/20 22:49:23;;;;;;;4.55;3.42;;;;;;;10.59;100.00;98176.04;3765187;78;44083;-23
2021/05/20 22:54:29;;;;;;;3.80;3.40;;;;;;;10.50;100.00;98175.70;3750791;77;43186;-23
2021/05/20 22:59:35;;;;;;;4.47;3.42;;;;;;;10.43;100.00;98177.70;3755015;78;43689;-22
2021/05/20 23:04:40;;;;;;;3.40;3.10;;;;;;;10.39;100.00;98182.24;3752136;77;42875;-23
2021/05/20 23:09:48;;;;;;;5.22;3.90;;;;;;;10.38;100.00;98171.98;3753279;77;44023;-22
2021/05/20 23:14:54;;;;;;;4.55;3.35;;;;;;;10.32;100.00;98165.88;3745272;77;44160;-21
2021/05/20 23:20:00;;;;;;;4.08;3.35;;;;;;;10.30;100.00;98161.16;3749273;78;44046;-22
2021/05/20 23:25:09;;;;;;;3.40;3.10;;;;;;;10.35;100.00;98158.81;3753340;77;44501;-21
2021/05/20 23:30:17;;;;;;;3.57;3.23;;;;;;;10.38;100.00;98143.72;3752089;78;43714;-21
2021/05/20 23:35:24;;;;;;;3.55;3.25;;;;;;;10.41;100.00;98137.97;3669755;79;43738;-22
2021/05/20 23:40:30;;;;;;;4.00;3.20;;;;;;;10.36;100.00;98134.92;3748780;77;43097;-22
2021/05/20 23:45:37;;;;;;;4.20;3.02;;;;;;;10.37;100.00;98128.53;3761909;77;43521;-22
2021/05/20 23:50:43;;;;;;;3.35;2.92;;;;;;;10.37;100.00;98121.80;3812758;77;42975;-22
2021/05/20 23:55:50;;;;;;;3.22;2.92;;;;;;;10.42;100.00;98119.45;3823838;77;43709;-22
